Time;durP1;ratioP1;P1;durP2;ratioP2;P2;SDS_P1;SDS_P2;PMS_P1;PMS_P2;Temp;Humidity;BMP_temperature;BMP_pressure;BME280_temperature;BME280_humidity;BME280_pressure;Samples;Min_cycle;Max_cycle;Signal;HPM_P1;HPM_P2
2023/04/24 00:01:50;;;;;;;;;;;;;;;27.61;20.24;97354.91;5071879;28;19920;-85
2023/04/24 00:04:16;;;;;;;;;;;;;;;27.71;19.38;97354.38;5064696;28;19917;-85
2023/04/24 00:06:43;;;;;;;;;;;;;;;27.75;19.91;97351.41;5070359;28;19924;-85
2023/04/24 00:09:12;;;;;;;;;;;;;;;27.64;19.73;97353.94;5069987;28;19920;-85
2023/04/24 00:11:38;;;;;;;;;;;;;;;27.46;19.24;97351.97;5066056;28;19927;-85
2023/04/24 00:14:04;;;;;;;;;;;;;;;27.38;20.09;97359.97;5065555;28;19917;-85
2023/04/24 00:16:30;;;;;;;;;;;;;;;27.30;20.96;97358.72;5067840;28;19978;-85
2023/04/24 00:18:56;;;;;;;;;;;;;;;27.26;20.35;97351.66;5064109;28;19920;-85
2023/04/24 00:21:25;;;;;;;;;;;;;;;27.22;20.13;97356.69;5072507;28;19974;-85
2023/04/24 00:23:51;;;;;;;;;;;;;;;27.16;21.15;97352.97;5071333;28;19924;-85
2023/04/24 00:26:17;;;;;;;;;;;;;;;27.13;19.99;97351.88;5066904;28;19955;-85
2023/04/24 00:28:43;;;;;;;;;;;;;;;27.22;19.68;97336.97;5066910;28;19931;-85
2023/04/24 00:31:09;;;;;;;;;;;;;;;27.27;19.50;97341.97;5071403;28;19971;-85
2023/04/24 00:33:35;;;;;;;;;;;;;;;27.13;20.41;97346.22;5070083;28;19932;-85
2023/04/24 00:36:01;;;;;;;;;;;;;;;27.32;19.98;97339.31;5071673;28;20283;-85
2023/04/24 00:38:27;;;;;;;;;;;;;;;27.41;19.88;97335.69;5071837;28;19916;-85
2023/04/24 00:40:54;;;;;;;;;;;;;;;27.64;18.70;97332.16;5052844;28;19966;-85
2023/04/24 00:43:20;;;;;;;;;;;;;;;27.32;20.48;97341.34;5069368;28;19928;-85
2023/04/24 00:45:46;;;;;;;;;;;;;;;27.48;19.54;97335.34;5072704;28;20265;-85
2023/04/24 00:48:12;;;;;;;;;;;;;;;27.31;19.88;97332.09;5071938;28;19927;-85
2023/04/24 00:50:39;;;;;;;;;;;;;;;27.27;20.50;97325.06;5069962;28;19939;-85
2023/04/24 00:53:05;;;;;;;;;;;;;;;27.26;19.59;97331.94;5070025;28;19920;-85
2023/04/24 00:55:31;;;;;;;;;;;;;;;27.28;20.56;97329.44;5066920;28;20444;-85
2023/04/24 00:57:58;;;;;;;;;;;;;;;27.42;20.26;97328.03;5069864;28;19925;-85
2023/04/24 01:00:25;;;;;;;;;;;;;;;27.31;20.25;97325.66;5070416;28;20294;-85
2023/04/24 01:02:51;;;;;;;;;;;;;;;27.27;19.70;97322.25;5072814;28;19920;-85
2023/04/24 01:05:18;;;;;;;;;;;;;;;27.41;19.69;97324.41;5063300;28;20014;-85
2023/04/24 01:07:47;;;;;;;;;;;;;;;27.26;20.72;97317.84;5058591;28;19951;-85
2023/04/24 01:10:13;;;;;;;;;;;;;;;27.30;19.77;97312.84;5060264;28;20365;-85
2023/04/24 01:12:39;;;;;;;;;;;;;;;27.05;20.42;97313.22;5062022;28;19956;-85
2023/04/24 01:15:06;;;;;;;;;;;;;;;27.16;19.77;97310.69;5074471;28;19942;-85
2023/04/24 01:17:33;;;;;;;;;;;;;;;27.18;19.74;97308.97;5061142;28;20007;-85
2023/04/24 01:19:59;;;;;;;;;;;;;;;27.09;20.92;97311.81;5067009;28;19920;-85
2023/04/24 01:22:26;;;;;;;;;;;;;;;27.27;19.69;97308.94;5071575;28;19921;-85
2023/04/24 01:24:52;;;;;;;;;;;;;;;27.04;20.16;97306.00;5069053;28;19927;-86
2023/04/24 01:27:19;;;;;;;;;;;;;;;27.15;20.83;97306.28;5065521;28;19924;-86
2023/04/24 01:29:45;;;;;;;;;;;;;;;27.15;20.51;97307.06;5074932;28;20005;-86
2023/04/24 01:32:12;;;;;;;;;;;;;;;27.18;20.57;97302.53;5063079;28;20019;-85
2023/04/24 01:34:38;;;;;;;;;;;;;;;27.31;20.18;97301.06;5065466;28;19920;-85
2023/04/24 01:37:05;;;;;;;;;;;;;;;27.15;20.74;97301.44;5072059;28;20077;-86
2023/04/24 01:39:31;;;;;;;;;;;;;;;27.24;20.30;97292.97;5072397;28;20011;-85
2023/04/24 01:41:57;;;;;;;;;;;;;;;27.33;20.20;97295.75;5068665;28;21842;-86
2023/04/24 01:44:23;;;;;;;;;;;;;;;27.29;19.59;97288.72;5073336;28;19947;-85
2023/04/24 01:46:50;;;;;;;;;;;;;;;27.02;20.54;97286.78;5073843;28;20004;-86
2023/04/24 01:49:16;;;;;;;;;;;;;;;27.02;21.02;97283.94;5064548;28;19920;-86
2023/04/24 01:51:42;;;;;;;;;;;;;;;26.97;20.94;97287.41;5068868;28;19948;-85
2023/04/24 01:54:08;;;;;;;;;;;;;;;26.74;20.96;97283.19;5073171;28;20383;-85
2023/04/24 01:56:35;;;;;;;;;;;;;;;26.69;20.46;97281.00;5064817;28;19925;-85
2023/04/24 01:59:02;;;;;;;;;;;;;;;26.86;20.58;97278.66;5065667;28;19928;-85
2023/04/24 02:01:32;;;;;;;;;;;;;;;26.94;21.36;97279.88;5070676;28;20402;-85
2023/04/24 02:03:58;;;;;;;;;;;;;;;27.07;20.84;97269.19;5073725;28;19921;-85
2023/04/24 02:06:25;;;;;;;;;;;;;;;27.17;20.31;97269.97;5058354;28;19928;-85
2023/04/24 02:08:51;;;;;;;;;;;;;;;27.13;20.35;97264.50;5072032;28;20387;-85
2023/04/24 02:11:17;;;;;;;;;;;;;;;27.04;20.99;97264.53;5074439;28;20902;-85
2023/04/24 02:13:43;;;;;;;;;;;;;;;27.00;19.96;97257.50;5066691;28;19994;-85
2023/04/24 02:16:09;;;;;;;;;;;;;;;27.04;20.13;97261.72;5073906;28;20376;-85
2023/04/24 02:18:35;;;;;;;;;;;;;;;27.14;19.92;97254.03;5066583;28;19967;-85
2023/04/24 02:21:01;;;;;;;;;;;;;;;27.13;20.26;97258.06;5074140;28;19920;-86
2023/04/24 02:23:27;;;;;;;;;;;;;;;27.19;20.05;97254.13;5072699;28;20367;-86
2023/04/24 02:25:55;;;;;;;;;;;;;;;27.14;19.63;97251.19;5062103;28;20007;-86
2023/04/24 02:28:21;;;;;;;;;;;;;;;26.96;20.50;97248.41;5075621;28;19931;-86
2023/04/24 02:30:47;;;;;;;;;;;;;;;26.95;20.47;97244.06;5070146;28;20011;-86
2023/04/24 02:33:13;;;;;;;;;;;;;;;26.94;19.93;97234.03;5072990;28;20462;-85
2023/04/24 02:35:39;;;;;;;;;;;;;;;26.84;20.24;97233.25;5068446;28;20004;-85
2023/04/24 02:38:05;;;;;;;;;;;;;;;26.85;20.33;97234.84;5061091;28;19951;-85
2023/04/24 02:40:31;;;;;;;;;;;;;;;26.84;20.20;97232.50;5070816;28;19916;-85
2023/04/24 02:42:57;;;;;;;;;;;;;;;26.63;20.33;97223.75;5063337;28;19920;-85
2023/04/24 02:45:23;;;;;;;;;;;;;;;26.46;20.34;97216.09;5074709;28;19924;-86
2023/04/24 02:47:50;;;;;;;;;;;;;;;26.16;20.95;97220.66;5077182;28;20004;-85
2023/04/24 02:50:16;;;;;;;;;;;;;;;26.12;20.11;97214.38;5070719;28;19927;-85
2023/04/24 02:52:42;;;;;;;;;;;;;;;25.95;21.04;97215.94;5073283;28;19917;-85
2023/04/24 02:55:08;;;;;;;;;;;;;;;25.87;21.14;97215.44;5072880;28;19925;-85
2023/04/24 02:57:34;;;;;;;;;;;;;;;26.04;21.16;97208.25;5065659;28;19929;-86
2023/04/24 03:00:00;;;;;;;;;;;;;;;26.25;20.99;97217.84;5060552;28;19920;-86
2023/04/24 03:02:26;;;;;;;;;;;;;;;26.23;20.73;97211.13;5069846;28;19920;-86
2023/04/24 03:04:52;;;;;;;;;;;;;;;26.18;20.95;97220.19;5073641;28;19942;-86
2023/04/24 03:07:20;;;;;;;;;;;;;;;26.30;20.50;97213.63;5063951;28;19924;-86
2023/04/24 03:09:47;;;;;;;;;;;;;;;26.29;20.68;97217.69;5060319;28;19921;-85
2023/04/24 03:12:13;;;;;;;;;;;;;;;26.29;20.22;97215.66;5070784;28;19970;-85
2023/04/24 03:14:39;;;;;;;;;;;;;;;26.30;20.83;97219.25;5071804;28;19968;-86
2023/04/24 03:17:05;;;;;;;;;;;;;;;26.27;20.65;97218.16;5069762;28;20322;-86
2023/04/24 03:19:31;;;;;;;;;;;;;;;26.28;20.30;97221.75;5082768;28;19920;-85
2023/04/24 03:21:57;;;;;;;;;;;;;;;25.84;21.44;97216.38;5083828;28;19931;-86
2023/04/24 03:24:23;;;;;;;;;;;;;;;25.68;21.55;97218.69;5058955;28;19925;-86
2023/04/24 03:26:49;;;;;;;;;;;;;;;25.83;21.65;97216.84;5066684;28;19932;-86
2023/04/24 03:29:15;;;;;;;;;;;;;;;25.69;21.19;97211.84;5074199;28;19912;-86
2023/04/24 03:31:41;;;;;;;;;;;;;;;25.90;21.40;97213.75;5068555;28;20326;-86
2023/04/24 03:34:07;;;;;;;;;;;;;;;25.96;21.60;97212.66;5068061;28;19920;-85
2023/04/24 03:36:33;;;;;;;;;;;;;;;25.73;21.15;97201.22;5077581;28;19928;-86
2023/04/24 03:38:59;;;;;;;;;;;;;;;25.62;21.09;97209.31;5073729;28;19967;-86
2023/04/24 03:41:25;;;;;;;;;;;;;;;25.55;21.31;97198.38;5072021;28;19991;-86
2023/04/24 03:43:51;;;;;;;;;;;;;;;25.80;21.03;97201.69;5070923;28;19917;-86
2023/04/24 03:46:17;;;;;;;;;;;;;;;25.85;20.98;97205.91;5071738;28;20368;-86
2023/04/24 03:48:43;;;;;;;;;;;;;;;25.77;21.45;97204.66;5071342;28;19927;-86
2023/04/24 03:51:09;;;;;;;;;;;;;;;25.75;21.41;97207.13;5066150;28;19924;-86
2023/04/24 03:53:35;;;;;;;;;;;;;;;25.95;21.03;97205.44;5070880;28;19924;-86
2023/04/24 03:56:01;;;;;;;;;;;;;;;25.93;21.55;97209.97;5063401;28;20299;-86
2023/04/24 03:58:27;;;;;;;;;;;;;;;26.31;21.78;97204.69;5069337;28;19920;-86
2023/04/24 04:00:53;;;;;;;;;;;;;;;26.56;20.78;97209.97;5062661;28;19925;-86
2023/04/24 04:03:19;;;;;;;;;;;;;;;26.57;21.21;97202.31;5062589;28;20007;-86
2023/04/24 04:05:45;;;;;;;;;;;;;;;26.86;20.97;97207.47;5073521;28;19963;-86
2023/04/24 04:08:11;;;;;;;;;;;;;;;27.07;20.93;97206.44;5069684;28;20357;-85
2023/04/24 04:10:37;;;;;;;;;;;;;;;27.20;20.76;97198.56;5069412;28;19920;-86
2023/04/24 04:13:04;;;;;;;;;;;;;;;27.38;20.74;97202.09;5054935;28;19925;-86
2023/04/24 04:15:30;;;;;;;;;;;;;;;27.52;20.48;97202.66;5065599;28;19924;-87
2023/04/24 04:17:56;;;;;;;;;;;;;;;27.29;21.37;97204.94;5065901;28;19973;-87
2023/04/24 04:20:22;;;;;;;;;;;;;;;27.61;21.58;97209.00;5068095;28;19933;-87
2023/04/24 04:22:48;;;;;;;;;;;;;;;27.53;21.54;97201.41;5069069;28;19921;-88
2023/04/24 04:25:14;;;;;;;;;;;;;;;27.53;22.46;97202.19;5068704;28;19924;-87
2023/04/24 04:27:41;;;;;;;;;;;;;;;27.94;22.86;97203.31;5060269;28;19929;-88
2023/04/24 04:30:09;;;;;;;;;;;;;;;28.34;22.54;97202.88;5062184;28;19920;-87
2023/04/24 04:32:35;;;;;;;;;;;;;;;28.59;21.72;97205.19;5078181;28;19920;-87
2023/04/24 04:35:04;;;;;;;;;;;;;;;28.81;22.65;97205.56;5068548;28;20407;-87
2023/04/24 04:37:31;;;;;;;;;;;;;;;29.10;22.70;97204.78;5068726;28;19928;-85
2023/04/24 04:39:57;;;;;;;;;;;;;;;29.26;21.63;97209.97;5068798;28;19928;-86
2023/04/24 04:42:24;;;;;;;;;;;;;;;29.40;21.79;97204.28;5072640;28;19955;-87
2023/04/24 04:44:50;;;;;;;;;;;;;;;29.32;20.35;97208.78;5063327;28;19948;-87
2023/04/24 04:47:17;;;;;;;;;;;;;;;29.01;21.54;97208.47;5068515;28;19929;-87
2023/04/24 04:49:43;;;;;;;;;;;;;;;28.98;22.45;97203.03;5066789;28;19928;-86
2023/04/24 04:52:09;;;;;;;;;;;;;;;29.06;23.47;97204.97;5073724;28;19959;-85
2023/04/24 04:54:35;;;;;;;;;;;;;;;29.51;22.17;97200.03;5075875;28;20379;-87
2023/04/24 04:57:01;;;;;;;;;;;;;;;29.41;21.46;97202.22;5068194;28;19971;-87
2023/04/24 04:59:27;;;;;;;;;;;;;;;29.35;21.45;97201.34;5072871;28;20139;-86
2023/04/24 05:01:53;;;;;;;;;;;;;;;29.19;22.23;97204.72;5071779;28;20426;-86
2023/04/24 05:04:19;;;;;;;;;;;;;;;29.20;22.85;97204.19;5070187;28;19966;-86
2023/04/24 05:06:47;;;;;;;;;;;;;;;29.33;23.94;97204.69;5071409;28;19964;-86
2023/04/24 05:09:13;;;;;;;;;;;;;;;29.44;21.87;97206.88;5074477;28;19920;-86
2023/04/24 05:11:39;;;;;;;;;;;;;;;29.35;23.92;97210.63;5075474;28;19948;-87
2023/04/24 05:14:05;;;;;;;;;;;;;;;29.53;21.56;97205.97;5073697;28;19979;-87
2023/04/24 05:16:31;;;;;;;;;;;;;;;29.04;22.12;97206.72;5073750;28;19916;-87
2023/04/24 05:18:57;;;;;;;;;;;;;;;29.23;23.38;97200.41;5074418;28;20020;-86
2023/04/24 05:21:23;;;;;;;;;;;;;;;29.91;23.36;97197.28;5075293;28;19959;-86
2023/04/24 05:23:49;;;;;;;;;;;;;;;30.31;21.28;97190.81;5074125;28;20272;-86
2023/04/24 05:26:15;;;;;;;;;;;;;;;29.86;23.54;97198.78;5070895;28;19986;-86
2023/04/24 05:28:41;;;;;;;;;;;;;;;29.98;24.32;97200.47;5075519;28;19924;-86
2023/04/24 05:31:07;;;;;;;;;;;;;;;30.19;22.21;97194.81;5076605;28;19917;-86
2023/04/24 05:33:33;;;;;;;;;;;;;;;30.14;22.73;97199.13;5074878;28;19927;-86
2023/04/24 05:35:59;;;;;;;;;;;;;;;30.33;21.20;97194.75;5075188;28;19935;-86
2023/04/24 05:38:25;;;;;;;;;;;;;;;30.27;21.59;97195.94;5074847;28;19933;-86
2023/04/24 05:40:51;;;;;;;;;;;;;;;30.34;20.73;97196.28;5075330;28;19925;-86
2023/04/24 05:43:17;;;;;;;;;;;;;;;30.47;21.81;97195.91;5076221;28;20315;-86
2023/04/24 05:45:43;;;;;;;;;;;;;;;31.03;20.85;97197.25;5075966;28;20446;-85
2023/04/24 05:48:09;;;;;;;;;;;;;;;31.21;20.69;97194.06;5075990;28;19916;-86
2023/04/24 05:50:35;;;;;;;;;;;;;;;31.41;19.49;97197.56;5064618;28;19978;-86
2023/04/24 05:53:02;;;;;;;;;;;;;;;30.82;20.04;97188.03;5066055;28;19932;-86
2023/04/24 05:55:28;;;;;;;;;;;;;;;30.96;21.69;97189.22;5073982;28;19924;-86
2023/04/24 05:57:54;;;;;;;;;;;;;;;31.38;19.82;97187.22;5052791;28;19964;-85
2023/04/24 06:00:20;;;;;;;;;;;;;;;31.64;19.82;97187.16;5074351;28;19920;-86
2023/04/24 06:02:47;;;;;;;;;;;;;;;31.38;20.00;97184.41;5075591;28;19923;-86
2023/04/24 06:05:13;;;;;;;;;;;;;;;31.21;21.00;97186.31;5071204;28;20261;-86
2023/04/24 06:07:39;;;;;;;;;;;;;;;31.40;20.50;97183.88;5069110;28;20330;-86
2023/04/24 06:10:05;;;;;;;;;;;;;;;31.51;20.25;97177.56;5075886;28;19916;-85
2023/04/24 06:12:31;;;;;;;;;;;;;;;31.40;19.54;97167.66;5075679;28;20372;-86
2023/04/24 06:14:57;;;;;;;;;;;;;;;31.33;19.76;97179.47;5075730;28;19926;-86
2023/04/24 06:17:23;;;;;;;;;;;;;;;31.23;19.00;97168.78;5075359;28;20011;-86
2023/04/24 06:19:49;;;;;;;;;;;;;;;30.98;19.80;97161.13;5075303;28;20003;-86
2023/04/24 06:22:15;;;;;;;;;;;;;;;31.09;18.39;97164.03;5064391;28;19968;-86
2023/04/24 06:24:41;;;;;;;;;;;;;;;31.04;19.52;97168.41;5075091;28;20019;-86
2023/04/24 06:27:07;;;;;;;;;;;;;;;30.91;20.21;97159.53;5074329;28;19925;-86
2023/04/24 06:29:34;;;;;;;;;;;;;;;31.16;20.42;97160.75;5075496;28;19920;-85
2023/04/24 06:32:00;;;;;;;;;;;;;;;31.52;19.25;97165.69;5072019;28;19924;-86
2023/04/24 06:34:26;;;;;;;;;;;;;;;31.27;18.52;97150.25;5084792;28;19920;-86
2023/04/24 06:36:52;;;;;;;;;;;;;;;31.54;18.32;97151.75;5068776;28;19917;-86
2023/04/24 06:39:18;;;;;;;;;;;;;;;31.51;19.77;97149.94;5074128;28;20396;-86
2023/04/24 06:41:44;;;;;;;;;;;;;;;31.84;19.44;97146.47;5073491;28;19924;-86
2023/04/24 06:44:10;;;;;;;;;;;;;;;31.93;19.90;97151.94;5075141;28;19969;-86
2023/04/24 06:46:36;;;;;;;;;;;;;;;32.13;18.84;97139.66;5074798;28;19920;-86
2023/04/24 06:49:02;;;;;;;;;;;;;;;31.88;19.35;97147.03;5074285;28;20306;-85
2023/04/24 06:51:28;;;;;;;;;;;;;;;31.54;19.70;97143.25;5071984;28;19929;-86
2023/04/24 06:53:55;;;;;;;;;;;;;;;31.89;18.59;97148.56;5074947;28;19970;-86
2023/04/24 06:56:22;;;;;;;;;;;;;;;32.03;19.96;97147.63;5074599;28;19974;-86
2023/04/24 06:58:48;;;;;;;;;;;;;;;32.39;18.82;97146.72;5075125;28;19970;-86
2023/04/24 07:01:14;;;;;;;;;;;;;;;31.54;21.26;97136.78;5074757;28;19927;-85
2023/04/24 07:03:40;;;;;;;;;;;;;;;31.94;19.00;97137.25;5073463;28;19923;-87
2023/04/24 07:06:06;;;;;;;;;;;;;;;32.08;19.17;97132.69;5073881;28;19928;-86
2023/04/24 07:08:32;;;;;;;;;;;;;;;32.09;19.45;97123.63;5073374;28;20005;-85
2023/04/24 07:10:59;;;;;;;;;;;;;;;32.18;18.82;97119.03;5074772;28;20256;-86
2023/04/24 07:13:26;;;;;;;;;;;;;;;31.94;18.23;97120.22;5074495;28;19960;-86
2023/04/24 07:15:54;;;;;;;;;;;;;;;32.27;19.47;97133.78;5074489;28;20007;-86
2023/04/24 07:18:21;;;;;;;;;;;;;;;32.70;18.93;97132.31;5074376;28;19916;-85
2023/04/24 07:20:47;;;;;;;;;;;;;;;33.07;18.49;97128.47;5073156;28;19924;-85
2023/04/24 07:23:13;;;;;;;;;;;;;;;32.45;18.52;97121.91;5074297;28;20430;-86
2023/04/24 07:25:39;;;;;;;;;;;;;;;32.56;19.03;97129.69;5074220;28;19938;-86
2023/04/24 07:28:05;;;;;;;;;;;;;;;32.75;17.78;97122.22;5074272;28;19923;-86
2023/04/24 07:30:32;;;;;;;;;;;;;;;32.96;19.44;97131.28;5073870;28;19916;-86
2023/04/24 07:32:58;;;;;;;;;;;;;;;33.06;19.90;97124.06;5074206;28;19916;-86
2023/04/24 07:35:25;;;;;;;;;;;;;;;32.05;19.08;97120.28;5073456;28;20292;-86
2023/04/24 07:37:52;;;;;;;;;;;;;;;31.82;18.69;97115.00;5074580;28;19916;-87
2023/04/24 07:40:19;;;;;;;;;;;;;;;31.96;18.77;97119.69;5074090;28;19961;-86
2023/04/24 07:42:45;;;;;;;;;;;;;;;32.09;20.20;97111.53;5073958;28;19916;-86
2023/04/24 07:45:11;;;;;;;;;;;;;;;31.74;19.69;97111.09;5072996;28;20397;-86
2023/04/24 07:47:38;;;;;;;;;;;;;;;32.38;19.52;97107.44;5074054;28;20013;-86
2023/04/24 07:50:05;;;;;;;;;;;;;;;32.16;17.56;97111.00;5074100;28;20019;-86
2023/04/24 07:52:31;;;;;;;;;;;;;;;32.19;19.44;97107.13;5073926;28;19917;-86
2023/04/24 07:54:58;;;;;;;;;;;;;;;32.86;18.78;97104.41;5073755;28;19924;-86
2023/04/24 07:57:24;;;;;;;;;;;;;;;32.98;18.40;97105.97;5073732;28;20392;-86
2023/04/24 07:59:51;;;;;;;;;;;;;;;32.52;18.13;97098.69;5072738;28;20011;-87
2023/04/24 08:02:17;;;;;;;;;;;;;;;32.93;19.27;97103.88;5073982;28;20414;-86
2023/04/24 08:04:43;;;;;;;;;;;;;;;33.08;19.80;97101.56;5073512;28;19917;-86
2023/04/24 08:07:09;;;;;;;;;;;;;;;32.23;19.02;97098.38;5073957;28;19916;-86
2023/04/24 08:09:35;;;;;;;;;;;;;;;31.77;20.93;97088.13;5073936;28;19916;-86
2023/04/24 08:12:02;;;;;;;;;;;;;;;31.79;20.11;97085.56;5073944;28;19961;-86
2023/04/24 08:14:28;;;;;;;;;;;;;;;31.03;19.91;97092.34;5072978;28;19927;-86
2023/04/24 08:16:55;;;;;;;;;;;;;;;31.42;20.68;97085.66;5073428;28;19920;-87
2023/04/24 08:19:21;;;;;;;;;;;;;;;32.17;20.21;97089.06;5072972;28;20387;-86
2023/04/24 08:21:47;;;;;;;;;;;;;;;32.63;19.72;97089.41;5071014;28;19927;-86
2023/04/24 08:24:13;;;;;;;;;;;;;;;32.85;19.88;97077.25;5073863;28;20006;-86
2023/04/24 08:26:40;;;;;;;;;;;;;;;33.23;19.72;97082.94;5073783;28;19924;-86
2023/04/24 08:29:06;;;;;;;;;;;;;;;33.05;19.36;97089.16;5073560;28;20363;-86
2023/04/24 08:31:32;;;;;;;;;;;;;;;33.40;18.30;97099.94;5073586;28;19912;-86
2023/04/24 08:33:59;;;;;;;;;;;;;;;33.37;21.13;97101.00;5072683;28;19917;-87
2023/04/24 08:36:25;;;;;;;;;;;;;;;33.57;17.92;97089.31;5073356;28;19919;-87
2023/04/24 08:38:52;;;;;;;;;;;;;;;33.70;17.38;97095.22;5073447;28;20356;-87
2023/04/24 08:41:19;;;;;;;;;;;;;;;33.90;19.80;97086.34;5073859;28;19916;-86
2023/04/24 08:43:48;;;;;;;;;;;;;;;34.25;19.52;97084.88;5073356;28;19956;-87
2023/04/24 08:46:15;;;;;;;;;;;;;;;34.54;17.67;97084.94;5073778;28;19927;-86
2023/04/24 08:48:41;;;;;;;;;;;;;;;34.63;18.20;97078.94;5072810;28;19978;-87
2023/04/24 08:51:07;;;;;;;;;;;;;;;34.83;17.80;97074.88;5071972;28;20007;-86
2023/04/24 08:53:35;;;;;;;;;;;;;;;34.35;18.68;97072.66;5073421;28;19959;-87
2023/04/24 08:56:01;;;;;;;;;;;;;;;34.44;17.42;97068.69;5073155;28;19927;-87
2023/04/24 08:58:28;;;;;;;;;;;;;;;34.36;18.99;97062.78;5071568;28;20299;-87
2023/04/24 09:00:54;;;;;;;;;;;;;;;34.11;17.34;97063.97;5073435;28;19920;-88
2023/04/24 09:03:20;;;;;;;;;;;;;;;34.44;18.13;97054.44;5073164;28;19916;-87
2023/04/24 09:05:47;;;;;;;;;;;;;;;34.40;19.28;97059.66;5073419;28;19923;-87
2023/04/24 09:08:14;;;;;;;;;;;;;;;34.62;16.99;97060.28;5073294;28;20480;-87
2023/04/24 09:10:40;;;;;;;;;;;;;;;34.38;17.96;97057.31;5073053;28;19917;-87
2023/04/24 09:13:09;;;;;;;;;;;;;;;33.95;19.41;97054.22;5071407;28;20405;-87
2023/04/24 09:15:35;;;;;;;;;;;;;;;34.23;17.33;97051.22;5066337;28;20350;-87
2023/04/24 09:18:01;;;;;;;;;;;;;;;34.00;18.67;97047.69;5085182;28;20012;-87
2023/04/24 09:20:28;;;;;;;;;;;;;;;34.09;20.06;97060.88;5064635;28;19917;-87
2023/04/24 09:22:57;;;;;;;;;;;;;;;34.38;16.58;97048.00;5073214;28;20284;-87
2023/04/24 09:25:30;;;;;;;;;;;;;;;33.20;19.58;97046.97;5073182;28;19916;-87
2023/04/24 09:28:00;;;;;;;;;;;;;;;32.05;20.57;97048.50;5068906;28;19924;-87
2023/04/24 09:30:26;;;;;;;;;;;;;;;32.65;20.57;97047.03;5075173;28;20010;-88
2023/04/24 09:33:10;;;;;;;;;;;;;;;33.09;21.98;97038.47;5071103;28;20395;-87
2023/04/24 09:35:39;;;;;;;;;;;;;;;32.77;19.90;97048.56;5059851;28;20388;-87
2023/04/24 09:38:06;;;;;;;;;;;;;;;33.84;19.48;97039.25;5056676;28;20402;-87
2023/04/24 09:40:34;;;;;;;;;;;;;;;34.09;19.12;97029.53;5056353;28;19923;-87
2023/04/24 09:43:02;;;;;;;;;;;;;;;33.95;19.01;97039.19;5074290;28;20337;-87
2023/04/24 09:45:34;;;;;;;;;;;;;;;34.58;19.95;97034.13;5076279;28;20007;-88
2023/04/24 09:48:01;;;;;;;;;;;;;;;35.22;18.86;97031.72;5076175;28;19916;-87
2023/04/24 09:50:27;;;;;;;;;;;;;;;35.58;18.31;97027.44;5075651;28;20405;-87
2023/04/24 09:52:57;;;;;;;;;;;;;;;35.57;19.37;97027.97;5075006;28;19928;-87
2023/04/24 09:55:24;;;;;;;;;;;;;;;35.30;18.58;97027.72;5076589;28;20291;-87
2023/04/24 09:57:51;;;;;;;;;;;;;;;35.37;17.65;97017.78;5075872;28;19925;-87
2023/04/24 10:00:18;;;;;;;;;;;;;;;35.68;17.28;97017.19;5075243;28;20292;-87
2023/04/24 10:02:44;;;;;;;;;;;;;;;34.37;17.76;97018.72;5074533;28;20384;-87
2023/04/24 10:05:11;;;;;;;;;;;;;;;33.61;22.39;97009.34;5062444;28;19916;-87
2023/04/24 10:07:40;;;;;;;;;;;;;;;33.41;22.02;97011.22;5054803;28;20399;-86
2023/04/24 10:10:06;;;;;;;;;;;;;;;33.02;19.17;97006.94;5056003;28;19963;-85
2023/04/24 10:12:32;;;;;;;;;;;;;;;34.42;19.30;97006.50;5055807;28;19928;-87
2023/04/24 10:14:59;;;;;;;;;;;;;;;35.42;17.98;97003.47;5061962;28;19920;-87
2023/04/24 10:17:25;;;;;;;;;;;;;;;32.15;19.45;97006.41;5075060;28;19916;-88
2023/04/24 10:19:52;;;;;;;;;;;;;;;31.95;20.88;97007.41;5075630;28;19917;-88
2023/04/24 10:22:18;;;;;;;;;;;;;;;33.28;19.94;96999.59;5076091;28;19916;-88
2023/04/24 10:24:45;;;;;;;;;;;;;;;34.37;19.41;97003.69;5076072;28;19927;-88
2023/04/24 10:27:12;;;;;;;;;;;;;;;35.40;18.52;97002.44;5076285;28;19925;-87
2023/04/24 10:29:38;;;;;;;;;;;;;;;35.84;19.03;97007.63;5076225;28;19920;-86
2023/04/24 10:32:06;;;;;;;;;;;;;;;35.85;19.03;96999.81;5075456;28;20402;-86
2023/04/24 10:34:32;;;;;;;;;;;;;;;35.93;18.45;97004.38;5075460;28;19920;-87
2023/04/24 10:36:58;;;;;;;;;;;;;;;35.83;17.79;96999.56;5075539;28;19917;-86
2023/04/24 10:39:25;;;;;;;;;;;;;;;36.03;18.31;96994.13;5075831;28;19927;-86
2023/04/24 10:41:51;;;;;;;;;;;;;;;36.27;18.32;96993.22;5075578;28;20318;-89
2023/04/24 10:44:17;;;;;;;;;;;;;;;36.69;17.08;96991.50;5074745;28;19927;-88
2023/04/24 10:46:44;;;;;;;;;;;;;;;36.81;16.71;96987.13;5074839;28;19923;-88
2023/04/24 10:49:10;;;;;;;;;;;;;;;35.90;14.73;96985.44;5075212;28;20265;-86
2023/04/24 10:51:50;;;;;;;;;;;;;;;35.81;19.30;96980.13;5064744;28;20279;-87
2023/04/24 10:54:22;;;;;;;;;;;;;;;35.77;17.51;96979.66;5070354;28;20019;-89
2023/04/24 10:56:50;;;;;;;;;;;;;;;36.07;17.61;96979.50;5074146;28;20460;-88
2023/04/24 10:59:34;;;;;;;;;;;;;;;36.06;17.13;96984.44;5074140;28;19927;-90
2023/04/24 11:02:00;;;;;;;;;;;;;;;36.04;17.58;96983.44;5070944;28;19927;-86
2023/04/24 11:04:33;;;;;;;;;;;;;;;36.44;17.26;96987.22;5060412;28;19916;-92
2023/04/24 11:06:59;;;;;;;;;;;;;;;37.04;16.97;96990.38;5064861;28;19921;-92
2023/04/24 11:09:30;;;;;;;;;;;;;;;37.02;18.32;96987.28;5072899;28;19927;-93
2023/04/24 11:12:10;;;;;;;;;;;;;;;37.47;17.33;96990.06;5075085;28;19970;-90
2023/04/24 11:14:55;;;;;;;;;;;;;;;37.41;18.27;96987.31;5074390;28;19924;-88
2023/04/24 11:17:30;;;;;;;;;;;;;;;36.94;16.33;96980.69;5073604;28;19921;-91
2023/04/24 11:20:07;;;;;;;;;;;;;;;36.93;16.35;96979.13;5072174;28;20011;-88
2023/04/24 11:22:35;;;;;;;;;;;;;;;36.80;16.26;96985.59;5069060;28;19927;-88
2023/04/24 11:25:04;;;;;;;;;;;;;;;36.42;16.58;96969.84;5071017;28;19934;-88
2023/04/24 11:27:32;;;;;;;;;;;;;;;36.46;19.85;96976.81;5069454;28;20316;-89
2023/04/24 11:30:00;;;;;;;;;;;;;;;36.25;16.27;96963.63;5068446;28;19920;-88
2023/04/24 11:32:30;;;;;;;;;;;;;;;36.25;17.10;96966.47;5070586;28;19921;-88
2023/04/24 11:34:56;;;;;;;;;;;;;;;37.17;18.25;96968.25;5070563;28;19959;-88
2023/04/24 11:37:24;;;;;;;;;;;;;;;37.71;17.95;96964.03;5071621;28;19943;-87
2023/04/24 11:39:50;;;;;;;;;;;;;;;37.55;19.15;96957.34;5072956;28;19925;-90
2023/04/24 11:42:16;;;;;;;;;;;;;;;36.74;14.74;96962.00;5071601;28;19921;-87
2023/04/24 11:44:42;;;;;;;;;;;;;;;36.36;18.96;96957.75;5064143;28;20481;-89
2023/04/24 11:47:08;;;;;;;;;;;;;;;36.50;16.63;96957.25;5087794;28;20380;-88
2023/04/24 11:49:37;;;;;;;;;;;;;;;36.16;17.26;96961.16;5069027;28;19924;-86
2023/04/24 11:52:07;;;;;;;;;;;;;;;34.31;22.67;96960.22;5063381;28;20485;-89
2023/04/24 11:54:33;;;;;;;;;;;;;;;35.23;19.89;96959.84;5054473;28;19936;-88
2023/04/24 11:57:03;;;;;;;;;;;;;;;35.31;16.39;96960.00;5071197;28;19924;-89
2023/04/24 11:59:29;;;;;;;;;;;;;;;35.56;17.95;96955.81;5071915;28;19920;-90
2023/04/24 12:01:55;;;;;;;;;;;;;;;36.21;18.79;96954.59;5067546;28;20391;-91
2023/04/24 12:04:21;;;;;;;;;;;;;;;36.81;19.82;96954.91;5073365;28;19920;-90
2023/04/24 12:07:03;;;;;;;;;;;;;;;37.04;17.54;96944.59;5073603;28;19916;-90
2023/04/24 12:09:40;;;;;;;;;;;;;;;37.12;17.07;96946.22;5074411;28;19924;-90
2023/04/24 12:12:06;;;;;;;;;;;;;;;36.91;17.85;96947.41;5074712;28;19916;-89
2023/04/24 12:14:32;;;;;;;;;;;;;;;36.89;18.76;96953.69;5069584;28;19956;-90
2023/04/24 12:16:58;;;;;;;;;;;;;;;36.99;17.84;96946.25;5065111;28;19920;-91
2023/04/24 12:19:25;;;;;;;;;;;;;;;36.76;18.24;96942.22;5055178;28;19921;-91
2023/04/24 12:22:04;;;;;;;;;;;;;;;36.50;18.14;96948.66;5073524;28;19916;-92
2023/04/24 12:24:31;;;;;;;;;;;;;;;36.23;18.74;96940.53;5074139;28;19936;-89
2023/04/24 12:26:57;;;;;;;;;;;;;;;35.74;17.93;96948.53;5074440;28;20371;-89
2023/04/24 12:29:24;;;;;;;;;;;;;;;35.02;18.20;96935.19;5074014;28;19938;-89
2023/04/24 12:31:51;;;;;;;;;;;;;;;35.33;18.69;96940.25;5072363;28;19916;-92
2023/04/24 12:34:20;;;;;;;;;;;;;;;34.93;18.99;96939.16;5069423;28;19967;-88
2023/04/24 12:36:47;;;;;;;;;;;;;;;34.91;18.30;96944.63;5072512;28;20338;-91
2023/04/24 12:39:19;;;;;;;;;;;;;;;34.96;18.96;96945.88;5070026;28;19932;-89
2023/04/24 12:42:16;;;;;;;;;;;;;;;34.81;18.55;96948.34;5071095;28;19924;-89
2023/04/24 12:44:53;;;;;;;;;;;;;;;34.05;19.62;96943.59;5070749;28;20296;-90
2023/04/24 12:47:19;;;;;;;;;;;;;;;33.95;20.47;96945.97;5073808;28;19955;-88